Terminal Aerodrome Forecast
Issued by NWS Rapid City, SD

Home | Current Version | Previous Version | Text Only | Print | Product List | Glossary On
Versions: 1 2 3 4 5 6 7 8 9 10 11 12 13 14 15 16 17
000
FTUS43 KUNR 281700
TAFRAP
TAF
KRAP 281720Z 2818/2918 VRB05KT P6SM BKN060
     FM282200 04010KT 2SM -SN OVC015
     FM290200 01016KT 3/4SM -SN VV008
     FM291200 01016KT 2SM -SN OVC015=

USA.gov is the U.S. government's official web portal to all federal, state and local government web resources and services.